createdAt,value
2024-01-05T00:00:04.450Z,6.80
2024-01-05T00:02:35.477Z,9.10
2024-01-05T00:05:03.265Z,7.50
2024-01-05T00:07:31.943Z,6.00
2024-01-05T00:10:00.578Z,6.30
2024-01-05T00:12:28.513Z,6.90
2024-01-05T00:14:58.394Z,7.17
2024-01-05T00:17:26.484Z,6.40
2024-01-05T00:19:54.299Z,8.93
2024-01-05T00:22:22.532Z,6.00
2024-01-05T00:24:50.413Z,4.73
2024-01-05T00:27:18.923Z,7.53
2024-01-05T00:29:47.282Z,8.73
2024-01-05T00:32:18.825Z,8.50
2024-01-05T00:34:47.646Z,5.37
2024-01-05T00:37:15.644Z,6.33
2024-01-05T00:39:46.024Z,5.90
2024-01-05T00:42:13.859Z,5.97
2024-01-05T00:44:41.650Z,6.47
2024-01-05T00:47:09.891Z,4.50
2024-01-05T00:49:39.494Z,6.00
2024-01-05T00:52:07.844Z,5.77
2024-01-05T00:54:35.871Z,7.77
2024-01-05T00:57:03.938Z,6.70
2024-01-05T00:59:31.639Z,6.80
2024-01-05T01:01:59.930Z,6.50
2024-01-05T01:04:28.359Z,8.40
2024-01-05T01:06:57.989Z,7.40
2024-01-05T01:09:26.186Z,8.40
2024-01-05T01:11:54.054Z,7.07
2024-01-05T01:14:22.179Z,6.13
2024-01-05T01:16:51.737Z,6.00
2024-01-05T01:19:19.701Z,6.90
2024-01-05T01:21:47.576Z,5.43
2024-01-05T01:24:17.548Z,6.40
2024-01-05T01:26:45.895Z,6.70
2024-01-05T01:29:13.733Z,6.80
2024-01-05T01:31:41.634Z,5.43
2024-01-05T01:34:09.484Z,4.97
2024-01-05T01:36:37.575Z,11.50
2024-01-05T01:39:06.082Z,7.97
2024-01-05T01:41:35.648Z,7.40
2024-01-05T01:44:04.047Z,8.93
2024-01-05T01:46:32.977Z,7.10
2024-01-05T01:49:00.806Z,10.57
2024-01-05T01:51:29.956Z,13.17
2024-01-05T01:53:58.710Z,8.97
2024-01-05T01:56:26.537Z,7.07
2024-01-05T01:58:55.571Z,9.40
2024-01-05T02:01:24.068Z,7.33
2024-01-05T02:03:52.577Z,7.80
2024-01-05T02:06:21.361Z,7.10
2024-01-05T02:08:49.481Z,7.50
2024-01-05T02:11:17.398Z,5.03
2024-01-05T02:13:45.205Z,5.27
2024-01-05T02:16:14.824Z,8.80
2024-01-05T02:19:02.931Z,6.40
2024-01-05T02:21:31.994Z,7.37
2024-01-05T02:24:01.328Z,7.80
2024-01-05T02:26:29.645Z,5.30
2024-01-05T02:28:57.501Z,5.80
2024-01-05T02:31:25.304Z,5.80
2024-01-05T02:33:53.354Z,4.80
2024-01-05T02:36:21.557Z,9.67
2024-01-05T02:38:50.109Z,7.20
2024-01-05T02:41:19.317Z,8.93
2024-01-05T02:43:47.344Z,8.30
2024-01-05T02:46:15.507Z,6.90
2024-01-05T02:48:43.322Z,6.53
2024-01-05T02:51:14.138Z,8.30
2024-01-05T02:53:43.838Z,6.07
2024-01-05T02:56:21.964Z,6.27
2024-01-05T02:58:49.692Z,9.00
2024-01-05T03:01:17.487Z,5.07
2024-01-05T03:03:49.541Z,6.40
2024-01-05T03:06:19.097Z,7.57
2024-01-05T03:08:47.215Z,5.00
2024-01-05T03:11:15.404Z,4.63
2024-01-05T03:13:44.434Z,7.17
2024-01-05T03:16:12.741Z,6.47
2024-01-05T03:18:40.529Z,4.50
2024-01-05T03:21:08.988Z,7.50
2024-01-05T03:23:36.959Z,4.40
2024-01-05T03:26:05.051Z,4.70
2024-01-05T03:28:32.939Z,4.07
2024-01-05T03:31:02.627Z,5.80
2024-01-05T03:33:30.617Z,6.33
2024-01-05T03:35:59.763Z,6.40
2024-01-05T03:38:27.447Z,4.43
2024-01-05T03:40:57.016Z,5.20
2024-01-05T03:43:25.735Z,6.87
2024-01-05T03:45:53.807Z,9.70
2024-01-05T03:48:23.703Z,8.00
2024-01-05T03:50:52.700Z,6.70
2024-01-05T03:53:20.889Z,7.00
2024-01-05T03:55:48.733Z,7.80
2024-01-05T03:58:17.011Z,5.60
2024-01-05T04:00:45.483Z,5.43
2024-01-05T04:03:13.750Z,7.60
2024-01-05T04:05:43.018Z,7.20
2024-01-05T04:08:11.121Z,10.93
2024-01-05T04:10:39.726Z,6.20
2024-01-05T04:13:07.985Z,8.67
2024-01-05T04:15:37.090Z,8.30
2024-01-05T04:18:05.456Z,4.70
2024-01-05T04:20:33.258Z,8.10
2024-01-05T04:23:02.887Z,7.23
2024-01-05T04:25:31.257Z,9.07
2024-01-05T04:27:59.832Z,8.50
2024-01-05T04:30:28.485Z,9.33
2024-01-05T04:32:56.473Z,8.30
2024-01-05T04:35:24.459Z,9.47
2024-01-05T04:37:52.831Z,9.37
2024-01-05T04:40:22.667Z,7.77
2024-01-05T04:42:50.796Z,9.87
2024-01-05T04:45:18.738Z,9.37
2024-01-05T04:47:48.163Z,8.37
2024-01-05T04:50:16.250Z,9.50
2024-01-05T04:52:44.705Z,10.37
2024-01-05T04:55:16.007Z,11.20
2024-01-05T04:57:46.531Z,9.80
2024-01-05T05:00:15.362Z,8.93
2024-01-05T05:02:43.054Z,10.40
2024-01-05T05:05:11.629Z,8.67
2024-01-05T05:07:39.712Z,9.63
2024-01-05T05:10:08.768Z,10.27
2024-01-05T05:12:36.774Z,10.27
2024-01-05T05:15:06.571Z,8.80
2024-01-05T05:17:34.986Z,9.77
2024-01-05T05:20:02.813Z,9.23
2024-01-05T05:22:30.868Z,9.40
2024-01-05T05:24:58.692Z,8.47
2024-01-05T05:27:27.792Z,9.77
2024-01-05T05:29:55.593Z,7.33
2024-01-05T05:32:24.929Z,6.17
2024-01-05T05:34:53.778Z,10.40
2024-01-05T05:37:21.531Z,9.40
2024-01-05T05:39:49.811Z,7.70
2024-01-05T05:42:17.762Z,9.83
2024-01-05T05:44:45.696Z,8.33
2024-01-05T05:47:13.400Z,7.53
2024-01-05T05:49:43.143Z,7.57
2024-01-05T05:52:10.871Z,11.10
2024-01-05T05:54:38.569Z,9.83
2024-01-05T05:57:10.497Z,8.17
2024-01-05T05:59:38.314Z,7.67
2024-01-05T06:02:06.361Z,10.50
2024-01-05T06:04:34.304Z,7.80
2024-01-05T06:07:03.459Z,10.63
2024-01-05T06:09:31.574Z,6.27
2024-01-05T06:11:59.393Z,5.50
2024-01-05T06:14:27.404Z,9.83
2024-01-05T06:16:55.109Z,6.00
2024-01-05T06:19:22.922Z,6.20
2024-01-05T06:21:50.680Z,9.60
2024-01-05T06:24:20.036Z,6.73
2024-01-05T06:26:48.225Z,6.57
2024-01-05T06:29:16.050Z,8.10
2024-01-05T06:31:44.345Z,12.33
2024-01-05T06:34:12.394Z,15.97
2024-01-05T06:36:40.230Z,10.30
2024-01-05T06:39:08.237Z,9.10
2024-01-05T06:41:38.120Z,20.50
2024-01-05T06:44:06.710Z,12.63
2024-01-05T06:46:34.573Z,10.97
2024-01-05T06:49:02.988Z,7.87
2024-01-05T06:51:31.787Z,10.93
2024-01-05T06:54:00.324Z,12.90
2024-01-05T06:56:33.106Z,10.27
2024-01-05T06:59:02.660Z,9.97
2024-01-05T07:01:30.759Z,11.77
2024-01-05T07:03:59.054Z,11.50
2024-01-05T07:06:27.252Z,11.70
2024-01-05T07:08:55.718Z,10.33
2024-01-05T07:11:23.788Z,20.07
2024-01-05T07:13:51.672Z,9.40
2024-01-05T07:16:21.071Z,14.97
2024-01-05T07:18:49.593Z,16.33
2024-01-05T07:21:17.822Z,16.40
2024-01-05T07:23:46.095Z,26.60
2024-01-05T07:26:15.464Z,21.83
2024-01-05T07:28:43.342Z,27.43
2024-01-05T07:31:11.539Z,33.77
2024-01-05T07:33:49.269Z,25.07
2024-01-05T07:36:17.143Z,20.57
2024-01-05T07:38:45.017Z,26.07
2024-01-05T07:41:16.904Z,28.93
2024-01-05T07:43:44.721Z,23.47
2024-01-05T07:46:13.567Z,30.70
2024-01-05T07:48:42.767Z,34.30
2024-01-05T07:51:12.219Z,25.13
2024-01-05T07:53:40.912Z,44.77
2024-01-05T07:56:09.536Z,27.10
2024-01-05T07:58:37.381Z,48.97
2024-01-05T08:01:05.491Z,43.07
2024-01-05T08:03:34.287Z,33.50
2024-01-05T08:06:02.384Z,24.63
2024-01-05T08:08:30.906Z,34.40
2024-01-05T08:10:59.056Z,29.70
2024-01-05T08:13:27.590Z,27.97
2024-01-05T08:15:55.452Z,29.20
2024-01-05T08:18:25.189Z,28.97
2024-01-05T08:20:52.940Z,32.20
2024-01-05T08:23:21.619Z,29.77
2024-01-05T08:25:50.764Z,28.17
2024-01-05T08:28:18.570Z,37.73
2024-01-05T08:30:47.949Z,38.43
2024-01-05T08:33:16.238Z,20.13
2024-01-05T08:35:44.287Z,29.07
2024-01-05T08:38:12.101Z,29.67
2024-01-05T08:40:39.893Z,23.40
2024-01-05T08:43:11.241Z,28.07
2024-01-05T08:45:40.976Z,24.23
2024-01-05T08:48:17.193Z,24.60
2024-01-05T08:50:45.450Z,29.70
2024-01-05T08:53:13.204Z,30.23
2024-01-05T08:55:40.948Z,31.73
2024-01-05T08:58:11.490Z,28.57
2024-01-05T09:00:39.300Z,34.23
2024-01-05T09:03:10.831Z,41.80
2024-01-05T09:05:40.658Z,46.77
2024-01-05T09:08:08.384Z,29.87
2024-01-05T09:10:36.058Z,31.77
2024-01-05T09:13:04.873Z,29.57
2024-01-05T09:15:35.432Z,28.07
2024-01-05T09:18:04.413Z,27.60
2024-01-05T09:20:32.462Z,25.50
2024-01-05T09:23:01.118Z,21.07
2024-01-05T09:25:29.315Z,25.87
2024-01-05T09:28:01.801Z,29.50
2024-01-05T09:30:30.739Z,20.57
2024-01-05T09:33:00.424Z,18.47
2024-01-05T09:35:28.488Z,22.23
2024-01-05T09:38:16.490Z,27.60
2024-01-05T09:41:04.560Z,30.63
2024-01-05T09:43:54.178Z,31.00
2024-01-05T09:46:42.496Z,21.83
2024-01-05T09:49:35.930Z,27.53
2024-01-05T09:52:23.705Z,27.80
2024-01-05T09:55:12.685Z,23.10
2024-01-05T09:58:00.497Z,25.33
2024-01-05T10:00:51.025Z,24.10
2024-01-05T10:03:38.994Z,22.83
2024-01-05T10:06:28.857Z,29.00
2024-01-05T10:09:16.957Z,28.90
2024-01-05T10:12:13.160Z,23.40
2024-01-05T10:15:04.041Z,25.73
2024-01-05T10:17:52.070Z,19.10
2024-01-05T10:20:42.422Z,19.10
2024-01-05T10:23:31.877Z,20.80
2024-01-05T10:26:21.160Z,26.20
2024-01-05T10:29:15.813Z,20.13
2024-01-05T10:32:14.384Z,15.53
2024-01-05T10:35:04.631Z,26.97
2024-01-05T10:38:04.264Z,15.20
2024-01-05T10:40:54.413Z,17.27
2024-01-05T10:43:43.522Z,30.00
2024-01-05T10:46:32.860Z,25.87
2024-01-05T10:49:20.966Z,22.00
2024-01-05T10:52:09.889Z,17.20
2024-01-05T10:54:58.441Z,17.93
2024-01-05T10:57:48.008Z,20.20
2024-01-05T11:00:35.972Z,14.90
2024-01-05T11:03:26.041Z,23.47
2024-01-05T11:06:14.910Z,24.53
2024-01-05T11:09:07.630Z,18.10
2024-01-05T11:12:03.673Z,22.40
2024-01-05T11:15:04.055Z,19.23
2024-01-05T11:18:16.664Z,20.70
2024-01-05T11:21:10.804Z,21.37
2024-01-05T11:23:58.789Z,23.73
2024-01-05T11:26:47.071Z,23.93
2024-01-05T11:29:51.393Z,17.27
2024-01-05T11:32:44.031Z,20.63
2024-01-05T11:35:43.442Z,24.60
2024-01-05T11:38:32.694Z,19.27
2024-01-05T11:41:20.986Z,22.63
2024-01-05T11:44:26.710Z,23.30
2024-01-05T11:47:36.220Z,24.10
2024-01-05T11:50:27.356Z,25.20
2024-01-05T11:53:16.079Z,28.17
2024-01-05T11:56:04.856Z,21.70
2024-01-05T11:58:52.570Z,23.10
2024-01-05T12:01:40.651Z,25.07
2024-01-05T12:04:29.026Z,25.63
2024-01-05T12:07:41.226Z,24.20
2024-01-05T12:10:29.804Z,26.37
2024-01-05T12:13:23.598Z,20.57
2024-01-05T12:16:11.899Z,21.30
2024-01-05T12:19:00.106Z,23.80
2024-01-05T12:21:51.913Z,26.13
2024-01-05T12:24:41.422Z,20.90
2024-01-05T12:27:36.823Z,22.10
2024-01-05T12:30:26.347Z,21.83
2024-01-05T12:33:14.768Z,26.10
2024-01-05T12:36:03.318Z,24.27
2024-01-05T12:38:51.811Z,19.90
2024-01-05T12:41:47.697Z,18.97
2024-01-05T12:44:36.385Z,21.13
2024-01-05T12:47:30.608Z,21.20
2024-01-05T12:50:24.815Z,21.90
2024-01-05T12:53:19.875Z,21.97
2024-01-05T12:56:09.216Z,21.90
2024-01-05T12:58:58.665Z,22.07
2024-01-05T13:01:46.400Z,19.63
2024-01-05T13:04:40.007Z,22.33
2024-01-05T13:07:29.572Z,22.73
2024-01-05T13:10:17.440Z,21.37
2024-01-05T13:13:07.199Z,26.70
2024-01-05T13:15:56.662Z,22.63
2024-01-05T13:18:44.764Z,26.00
2024-01-05T13:21:33.049Z,23.90
2024-01-05T13:24:20.959Z,31.10
2024-01-05T13:27:10.526Z,26.73
2024-01-05T13:29:58.503Z,24.97
2024-01-05T13:32:49.062Z,27.57
2024-01-05T13:35:37.678Z,31.40
2024-01-05T13:38:25.805Z,22.90
2024-01-05T13:41:13.518Z,30.60
2024-01-05T13:44:01.767Z,26.80
2024-01-05T13:46:49.734Z,26.13
2024-01-05T13:49:39.274Z,27.67
2024-01-05T13:52:27.185Z,23.00
2024-01-05T13:55:15.974Z,27.00
2024-01-05T13:58:04.264Z,30.83
2024-01-05T14:00:53.208Z,28.30
2024-01-05T14:03:41.175Z,28.23
2024-01-05T14:06:30.855Z,21.93
2024-01-05T14:09:18.795Z,31.03
2024-01-05T14:12:07.317Z,30.30
2024-01-05T14:14:55.050Z,30.93
2024-01-05T14:17:43.916Z,37.43
2024-01-05T14:20:31.884Z,33.00
2024-01-05T14:23:21.694Z,28.37
2024-01-05T14:26:12.520Z,28.50
2024-01-05T14:29:00.662Z,29.50
2024-01-05T14:31:49.157Z,26.57
2024-01-05T14:34:40.240Z,30.63
2024-01-05T14:37:30.181Z,24.80
2024-01-05T14:40:20.020Z,28.33
2024-01-05T14:43:07.770Z,29.13
2024-01-05T14:45:56.200Z,32.07
2024-01-05T14:48:44.426Z,27.73
2024-01-05T14:51:32.668Z,29.13
2024-01-05T14:54:20.487Z,27.73
2024-01-05T14:57:10.225Z,25.60
2024-01-05T14:59:57.938Z,31.03
2024-01-05T15:02:45.976Z,29.50
2024-01-05T15:05:33.805Z,30.73
2024-01-05T15:08:23.653Z,33.83
2024-01-05T15:11:18.003Z,36.07
2024-01-05T15:14:08.748Z,32.03
2024-01-05T15:16:56.461Z,30.73
2024-01-05T15:19:44.901Z,48.87
2024-01-05T15:22:32.813Z,33.97
2024-01-05T15:25:20.935Z,33.60
2024-01-05T15:28:08.909Z,40.87
2024-01-05T15:30:59.200Z,36.60
2024-01-05T15:33:47.333Z,33.73
2024-01-05T15:36:35.767Z,34.40
2024-01-05T15:39:23.681Z,34.93
2024-01-05T15:42:11.842Z,35.23
2024-01-05T15:44:59.700Z,39.20
2024-01-05T15:47:50.355Z,36.43
2024-01-05T15:50:38.354Z,44.73
2024-01-05T15:53:26.997Z,44.20
2024-01-05T15:56:17.244Z,41.60
2024-01-05T15:59:05.627Z,42.43
2024-01-05T16:01:53.703Z,42.87
2024-01-05T16:04:43.550Z,45.57
2024-01-05T16:07:32.320Z,40.77
2024-01-05T16:10:20.180Z,36.00
2024-01-05T16:13:08.022Z,34.83
2024-01-05T16:16:11.520Z,42.77
2024-01-05T16:19:01.644Z,43.07
2024-01-05T16:21:51.220Z,52.03
2024-01-05T16:24:38.967Z,39.87
2024-01-05T16:27:27.348Z,42.80
2024-01-05T16:30:15.945Z,45.67
2024-01-05T16:33:04.235Z,39.87
2024-01-05T16:35:52.198Z,56.87
2024-01-05T16:38:41.776Z,49.23
2024-01-05T16:41:29.717Z,50.70
2024-01-05T16:44:17.795Z,51.67
2024-01-05T16:47:05.624Z,51.13
2024-01-05T16:49:53.871Z,51.57
2024-01-05T16:52:43.170Z,54.00
2024-01-05T16:55:35.990Z,52.67
2024-01-05T16:58:23.760Z,56.50
2024-01-05T17:01:12.610Z,61.07
2024-01-05T17:04:00.462Z,63.13
2024-01-05T17:06:53.736Z,57.20
2024-01-05T17:09:42.437Z,63.10
2024-01-05T17:12:33.060Z,59.67
2024-01-05T17:15:20.895Z,56.23
2024-01-05T17:18:08.892Z,64.67
2024-01-05T17:20:56.913Z,61.73
2024-01-05T17:23:44.936Z,66.90
2024-01-05T17:26:39.025Z,65.53
2024-01-05T17:29:28.174Z,65.03
2024-01-05T17:32:16.580Z,71.23
2024-01-05T17:35:04.768Z,65.53
2024-01-05T17:37:53.624Z,67.57
2024-01-05T17:40:41.657Z,73.07
2024-01-05T17:43:29.349Z,66.53
2024-01-05T17:46:19.040Z,76.37
2024-01-05T17:49:07.085Z,70.07
2024-01-05T17:51:56.469Z,65.43
2024-01-05T17:54:44.769Z,74.50
2024-01-05T17:57:33.185Z,76.87
2024-01-05T18:00:03.098Z,72.90
2024-01-05T18:02:41.318Z,71.97
2024-01-05T18:05:10.441Z,67.00
2024-01-05T18:07:38.339Z,71.67
2024-01-05T18:10:07.128Z,73.63
2024-01-05T18:12:35.111Z,74.90
2024-01-05T18:15:05.286Z,77.40
2024-01-05T18:17:33.868Z,73.47
2024-01-05T18:20:03.105Z,75.80
2024-01-05T18:22:30.908Z,76.37
2024-01-05T18:24:58.885Z,79.87
2024-01-05T18:27:26.802Z,81.93
2024-01-05T18:29:54.553Z,79.53
2024-01-05T18:32:23.219Z,79.17
2024-01-05T18:34:50.061Z,88.90
2024-01-05T18:37:20.808Z,79.10
2024-01-05T18:39:49.944Z,92.60
2024-01-05T18:42:17.792Z,89.73
2024-01-05T18:44:45.911Z,91.83
2024-01-05T18:47:14.242Z,96.20
2024-01-05T18:49:42.207Z,87.17
2024-01-05T18:52:10.000Z,84.37
2024-01-05T18:54:40.135Z,103.23
2024-01-05T18:57:08.354Z,97.10
2024-01-05T18:59:36.289Z,89.43
2024-01-05T19:02:06.312Z,91.23
2024-01-05T19:04:36.474Z,94.53
2024-01-05T19:07:06.602Z,101.87
2024-01-05T19:09:34.857Z,109.67
2024-01-05T19:12:04.881Z,102.07
2024-01-05T19:14:33.503Z,108.17
2024-01-05T19:17:01.233Z,102.90
2024-01-05T19:19:29.373Z,94.17
2024-01-05T19:21:58.118Z,108.60
2024-01-05T19:24:29.609Z,111.13
2024-01-05T19:26:58.053Z,106.77
2024-01-05T19:29:27.217Z,111.63
2024-01-05T19:31:55.219Z,109.90
2024-01-05T19:34:23.067Z,108.40
2024-01-05T19:36:52.410Z,105.20
2024-01-05T19:39:20.535Z,111.40
2024-01-05T19:41:49.214Z,108.80
2024-01-05T19:44:18.732Z,106.50
2024-01-05T19:46:48.134Z,113.80
2024-01-05T19:49:17.433Z,120.20
2024-01-05T19:51:46.719Z,120.17
2024-01-05T19:54:19.498Z,113.83
2024-01-05T19:56:48.881Z,108.63
2024-01-05T19:59:17.969Z,119.77
2024-01-05T20:01:47.517Z,115.33
2024-01-05T20:04:18.041Z,121.37
2024-01-05T20:06:48.392Z,116.17
2024-01-05T20:09:17.614Z,120.87
2024-01-05T20:11:46.473Z,123.13
2024-01-05T20:14:15.023Z,124.23
2024-01-05T20:16:43.257Z,135.47
2024-01-05T20:19:32.748Z,133.33
2024-01-05T20:22:02.970Z,133.43
2024-01-05T20:24:31.037Z,132.40
2024-01-05T20:26:59.217Z,130.63
2024-01-05T20:29:27.369Z,129.17
2024-01-05T20:31:55.803Z,125.10
2024-01-05T20:34:24.632Z,135.70
2024-01-05T20:36:55.403Z,142.10
2024-01-05T20:39:25.217Z,127.33
2024-01-05T20:41:53.200Z,140.27
2024-01-05T20:44:23.207Z,134.73
2024-01-05T20:46:51.565Z,137.23
2024-01-05T20:49:19.882Z,134.23
2024-01-05T20:51:48.184Z,143.20
2024-01-05T20:54:18.239Z,149.83
2024-01-05T20:56:46.311Z,148.53
2024-01-05T20:59:14.389Z,135.10
2024-01-05T21:01:43.868Z,150.03
2024-01-05T21:04:15.652Z,150.07
2024-01-05T21:06:45.395Z,145.13
2024-01-05T21:09:14.190Z,164.00
2024-01-05T21:11:43.637Z,144.67
2024-01-05T21:14:14.152Z,163.17
2024-01-05T21:16:43.099Z,153.60
2024-01-05T21:19:11.437Z,152.07
2024-01-05T21:21:44.013Z,161.67
2024-01-05T21:24:12.236Z,160.57
2024-01-05T21:26:46.117Z,148.77
2024-01-05T21:29:15.703Z,155.77
2024-01-05T21:31:48.631Z,163.90
2024-01-05T21:34:17.176Z,148.23
2024-01-05T21:36:46.583Z,169.70
2024-01-05T21:39:18.461Z,167.73
2024-01-05T21:41:49.368Z,159.07
2024-01-05T21:44:17.735Z,176.27
2024-01-05T21:46:45.654Z,165.10
2024-01-05T21:49:13.933Z,172.60
2024-01-05T21:51:41.955Z,200.47
2024-01-05T21:54:10.859Z,174.43
2024-01-05T21:56:39.716Z,184.63
2024-01-05T21:59:09.520Z,164.03
2024-01-05T22:01:37.914Z,170.17
2024-01-05T22:04:06.414Z,160.10
2024-01-05T22:06:34.684Z,148.40
2024-01-05T22:09:02.658Z,171.43
2024-01-05T22:11:30.986Z,166.93
2024-01-05T22:13:59.210Z,178.73
2024-01-05T22:16:28.847Z,172.83
2024-01-05T22:18:57.256Z,172.93
2024-01-05T22:21:25.262Z,163.97
2024-01-05T22:23:53.912Z,186.63
2024-01-05T22:26:22.267Z,173.80
2024-01-05T22:28:51.778Z,183.73
2024-01-05T22:31:19.999Z,177.80
2024-01-05T22:33:49.762Z,181.47
2024-01-05T22:36:18.202Z,174.13
2024-01-05T22:38:46.202Z,178.67
2024-01-05T22:41:15.401Z,200.00
2024-01-05T22:43:43.510Z,177.77
2024-01-05T22:46:14.703Z,212.30
2024-01-05T22:48:46.447Z,189.50
2024-01-05T22:51:23.748Z,179.00
2024-01-05T22:53:52.066Z,198.00
2024-01-05T22:56:20.027Z,196.87
2024-01-05T22:58:48.491Z,198.63
2024-01-05T23:01:20.735Z,196.23
2024-01-05T23:03:49.240Z,195.97
2024-01-05T23:06:17.692Z,202.23
2024-01-05T23:08:47.643Z,199.67
2024-01-05T23:11:16.027Z,186.13
2024-01-05T23:13:44.907Z,200.50
2024-01-05T23:16:14.277Z,189.47
2024-01-05T23:18:42.712Z,207.50
2024-01-05T23:21:10.739Z,212.43
2024-01-05T23:23:40.221Z,204.77
2024-01-05T23:26:16.017Z,206.20
2024-01-05T23:28:44.316Z,196.70
2024-01-05T23:31:13.288Z,226.77
2024-01-05T23:33:41.692Z,189.67
2024-01-05T23:36:09.956Z,221.33
2024-01-05T23:38:37.999Z,203.37
2024-01-05T23:41:06.070Z,204.67
2024-01-05T23:43:36.326Z,208.67
2024-01-05T23:46:04.389Z,209.80
2024-01-05T23:48:32.785Z,206.90
2024-01-05T23:51:01.225Z,211.77
2024-01-05T23:53:29.221Z,206.03
2024-01-05T23:55:57.529Z,207.00
2024-01-05T23:58:25.591Z,188.83
